sensor_id;sensor_type;location;lat;lon;timestamp;temperature;humidity
45060;DHT22;30799;49.060;9.312;2023-04-24T00:02:19;20.00;65.50
45060;DHT22;30799;49.060;9.312;2023-04-24T00:04:46;20.00;65.40
45060;DHT22;30799;49.060;9.312;2023-04-24T00:07:13;20.00;65.50
45060;DHT22;30799;49.060;9.312;2023-04-24T00:09:40;20.00;65.40
45060;DHT22;30799;49.060;9.312;2023-04-24T00:12:08;20.00;65.40
45060;DHT22;30799;49.060;9.312;2023-04-24T00:14:35;20.00;65.30
45060;DHT22;30799;49.060;9.312;2023-04-24T00:17:02;20.00;65.30
45060;DHT22;30799;49.060;9.312;2023-04-24T00:19:29;20.00;65.30
45060;DHT22;30799;49.060;9.312;2023-04-24T00:21:56;20.00;65.40
45060;DHT22;30799;49.060;9.312;2023-04-24T00:24:22;20.00;65.20
45060;DHT22;30799;49.060;9.312;2023-04-24T00:26:49;20.00;65.30
45060;DHT22;30799;49.060;9.312;2023-04-24T00:29:16;20.10;65.30
45060;DHT22;30799;49.060;9.312;2023-04-24T00:31:42;20.00;65.30
45060;DHT22;30799;49.060;9.312;2023-04-24T00:34:09;20.00;65.20
45060;DHT22;30799;49.060;9.312;2023-04-24T00:36:36;20.00;65.10
45060;DHT22;30799;49.060;9.312;2023-04-24T00:39:03;20.00;65.10
45060;DHT22;30799;49.060;9.312;2023-04-24T00:41:30;20.00;65.20
45060;DHT22;30799;49.060;9.312;2023-04-24T00:43:57;20.00;65.20
45060;DHT22;30799;49.060;9.312;2023-04-24T00:46:23;20.00;65.20
45060;DHT22;30799;49.060;9.312;2023-04-24T00:48:50;20.00;65.20
45060;DHT22;30799;49.060;9.312;2023-04-24T00:51:17;20.10;65.20
45060;DHT22;30799;49.060;9.312;2023-04-24T00:53:44;20.10;65.30
45060;DHT22;30799;49.060;9.312;2023-04-24T00:56:11;20.00;65.20
45060;DHT22;30799;49.060;9.312;2023-04-24T00:58:38;20.10;65.30
45060;DHT22;30799;49.060;9.312;2023-04-24T01:01:06;20.10;65.30
45060;DHT22;30799;49.060;9.312;2023-04-24T01:03:34;20.10;65.30
45060;DHT22;30799;49.060;9.312;2023-04-24T01:06:04;20.00;65.10
45060;DHT22;30799;49.060;9.312;2023-04-24T01:08:31;20.00;65.20
45060;DHT22;30799;49.060;9.312;2023-04-24T01:10:59;20.00;65.20
45060;DHT22;30799;49.060;9.312;2023-04-24T01:13:27;20.00;65.20
45060;DHT22;30799;49.060;9.312;2023-04-24T01:15:54;20.00;65.20
45060;DHT22;30799;49.060;9.312;2023-04-24T01:18:20;20.10;65.30
45060;DHT22;30799;49.060;9.312;2023-04-24T01:20:50;20.00;65.20
45060;DHT22;30799;49.060;9.312;2023-04-24T01:23:19;20.00;65.20
45060;DHT22;30799;49.060;9.312;2023-04-24T01:25:46;20.10;65.30
45060;DHT22;30799;49.060;9.312;2023-04-24T01:28:13;20.00;65.30
45060;DHT22;30799;49.060;9.312;2023-04-24T01:30:40;20.10;65.30
45060;DHT22;30799;49.060;9.312;2023-04-24T01:33:07;20.00;65.30
45060;DHT22;30799;49.060;9.312;2023-04-24T01:35:34;20.10;65.20
45060;DHT22;30799;49.060;9.312;2023-04-24T01:38:02;20.00;65.10
45060;DHT22;30799;49.060;9.312;2023-04-24T01:40:29;20.10;65.30
45060;DHT22;30799;49.060;9.312;2023-04-24T01:42:55;20.10;65.30
45060;DHT22;30799;49.060;9.312;2023-04-24T01:45:22;20.00;65.10
45060;DHT22;30799;49.060;9.312;2023-04-24T01:47:50;20.00;65.20
45060;DHT22;30799;49.060;9.312;2023-04-24T01:50:17;20.10;65.30
45060;DHT22;30799;49.060;9.312;2023-04-24T01:52:44;20.10;65.20
45060;DHT22;30799;49.060;9.312;2023-04-24T01:55:11;20.10;65.30
45060;DHT22;30799;49.060;9.312;2023-04-24T01:57:38;20.10;65.30
45060;DHT22;30799;49.060;9.312;2023-04-24T02:00:05;20.10;65.20
45060;DHT22;30799;49.060;9.312;2023-04-24T02:02:33;20.00;65.10
45060;DHT22;30799;49.060;9.312;2023-04-24T02:05:00;20.10;65.20
45060;DHT22;30799;49.060;9.312;2023-04-24T02:07:27;20.00;65.10
45060;DHT22;30799;49.060;9.312;2023-04-24T02:09:54;20.00;65.20
45060;DHT22;30799;49.060;9.312;2023-04-24T02:12:21;20.10;65.20
45060;DHT22;30799;49.060;9.312;2023-04-24T02:14:48;20.00;65.20
45060;DHT22;30799;49.060;9.312;2023-04-24T02:17:15;20.00;65.10
45060;DHT22;30799;49.060;9.312;2023-04-24T02:19:42;20.10;65.20
45060;DHT22;30799;49.060;9.312;2023-04-24T02:22:09;20.10;65.20
45060;DHT22;30799;49.060;9.312;2023-04-24T02:24:37;20.10;65.20
45060;DHT22;30799;49.060;9.312;2023-04-24T02:27:04;20.10;65.10
45060;DHT22;30799;49.060;9.312;2023-04-24T02:29:31;20.00;65.10
45060;DHT22;30799;49.060;9.312;2023-04-24T02:31:58;20.00;65.10
45060;DHT22;30799;49.060;9.312;2023-04-24T02:34:24;20.10;65.20
45060;DHT22;30799;49.060;9.312;2023-04-24T02:36:51;20.00;65.00
45060;DHT22;30799;49.060;9.312;2023-04-24T02:39:20;20.10;65.10
45060;DHT22;30799;49.060;9.312;2023-04-24T02:41:47;20.00;64.90
45060;DHT22;30799;49.060;9.312;2023-04-24T02:44:13;20.10;65.10
45060;DHT22;30799;49.060;9.312;2023-04-24T02:46:40;20.10;65.10
45060;DHT22;30799;49.060;9.312;2023-04-24T02:49:08;20.00;65.10
45060;DHT22;30799;49.060;9.312;2023-04-24T02:51:34;20.10;65.10
45060;DHT22;30799;49.060;9.312;2023-04-24T02:54:04;20.10;65.20
45060;DHT22;30799;49.060;9.312;2023-04-24T02:56:31;20.00;65.00
45060;DHT22;30799;49.060;9.312;2023-04-24T02:58:57;20.10;65.10
45060;DHT22;30799;49.060;9.312;2023-04-24T03:01:24;20.00;65.10
45060;DHT22;30799;49.060;9.312;2023-04-24T03:03:51;20.10;65.20
45060;DHT22;30799;49.060;9.312;2023-04-24T03:06:18;20.10;65.30
45060;DHT22;30799;49.060;9.312;2023-04-24T03:08:45;20.10;65.00
45060;DHT22;30799;49.060;9.312;2023-04-24T03:11:11;20.00;65.00
45060;DHT22;30799;49.060;9.312;2023-04-24T03:13:38;20.00;65.00
45060;DHT22;30799;49.060;9.312;2023-04-24T03:16:05;20.10;65.00
45060;DHT22;30799;49.060;9.312;2023-04-24T03:18:32;20.00;65.10
45060;DHT22;30799;49.060;9.312;2023-04-24T03:20:58;20.10;65.10
45060;DHT22;30799;49.060;9.312;2023-04-24T03:23:25;20.10;65.00
45060;DHT22;30799;49.060;9.312;2023-04-24T03:25:52;20.10;65.00
45060;DHT22;30799;49.060;9.312;2023-04-24T03:28:19;20.10;65.00
45060;DHT22;30799;49.060;9.312;2023-04-24T03:30:46;20.10;65.00
45060;DHT22;30799;49.060;9.312;2023-04-24T03:33:12;20.10;65.00
45060;DHT22;30799;49.060;9.312;2023-04-24T03:35:39;20.10;65.10
45060;DHT22;30799;49.060;9.312;2023-04-24T03:38:06;20.10;65.00
45060;DHT22;30799;49.060;9.312;2023-04-24T03:40:32;20.00;65.00
45060;DHT22;30799;49.060;9.312;2023-04-24T03:43:00;20.10;65.00
45060;DHT22;30799;49.060;9.312;2023-04-24T03:45:26;20.00;65.00
45060;DHT22;30799;49.060;9.312;2023-04-24T03:47:53;20.10;65.00
45060;DHT22;30799;49.060;9.312;2023-04-24T03:50:20;20.10;65.00
45060;DHT22;30799;49.060;9.312;2023-04-24T03:52:47;20.10;64.90
45060;DHT22;30799;49.060;9.312;2023-04-24T03:55:14;20.10;65.10
45060;DHT22;30799;49.060;9.312;2023-04-24T03:57:41;20.00;65.00
45060;DHT22;30799;49.060;9.312;2023-04-24T04:00:08;20.10;64.90
45060;DHT22;30799;49.060;9.312;2023-04-24T04:02:35;20.10;65.80
45060;DHT22;30799;49.060;9.312;2023-04-24T04:05:02;20.00;64.90
45060;DHT22;30799;49.060;9.312;2023-04-24T04:07:29;20.00;65.00
45060;DHT22;30799;49.060;9.312;2023-04-24T04:09:56;20.10;64.90
45060;DHT22;30799;49.060;9.312;2023-04-24T04:12:23;20.10;65.00
45060;DHT22;30799;49.060;9.312;2023-04-24T04:14:49;20.10;65.00
45060;DHT22;30799;49.060;9.312;2023-04-24T04:17:16;20.10;65.00
45060;DHT22;30799;49.060;9.312;2023-04-24T04:19:44;20.10;65.00
45060;DHT22;30799;49.060;9.312;2023-04-24T04:22:11;20.10;65.00
45060;DHT22;30799;49.060;9.312;2023-04-24T04:24:37;20.10;64.80
45060;DHT22;30799;49.060;9.312;2023-04-24T04:27:07;20.10;64.80
45060;DHT22;30799;49.060;9.312;2023-04-24T04:29:34;20.10;64.80
45060;DHT22;30799;49.060;9.312;2023-04-24T04:32:02;20.10;64.90
45060;DHT22;30799;49.060;9.312;2023-04-24T04:34:29;20.00;64.70
45060;DHT22;30799;49.060;9.312;2023-04-24T04:36:56;20.10;64.80
45060;DHT22;30799;49.060;9.312;2023-04-24T04:39:25;20.10;65.30
45060;DHT22;30799;49.060;9.312;2023-04-24T04:41:52;20.10;65.30
45060;DHT22;30799;49.060;9.312;2023-04-24T04:44:19;20.10;65.10
45060;DHT22;30799;49.060;9.312;2023-04-24T04:46:46;20.00;65.10
45060;DHT22;30799;49.060;9.312;2023-04-24T04:49:13;20.10;65.10
45060;DHT22;30799;49.060;9.312;2023-04-24T04:51:43;20.10;65.10
45060;DHT22;30799;49.060;9.312;2023-04-24T04:54:09;20.10;65.20
45060;DHT22;30799;49.060;9.312;2023-04-24T04:56:36;20.00;64.70
45060;DHT22;30799;49.060;9.312;2023-04-24T04:59:02;20.10;64.80
45060;DHT22;30799;49.060;9.312;2023-04-24T05:01:29;20.10;64.90
45060;DHT22;30799;49.060;9.312;2023-04-24T05:03:56;20.10;65.30
45060;DHT22;30799;49.060;9.312;2023-04-24T05:06:23;20.10;65.90
45060;DHT22;30799;49.060;9.312;2023-04-24T05:08:50;20.10;65.60
45060;DHT22;30799;49.060;9.312;2023-04-24T05:11:17;20.10;65.90
45060;DHT22;30799;49.060;9.312;2023-04-24T05:13:44;20.20;65.70
45060;DHT22;30799;49.060;9.312;2023-04-24T05:16:11;20.10;65.90
45060;DHT22;30799;49.060;9.312;2023-04-24T05:18:37;20.20;66.00
45060;DHT22;30799;49.060;9.312;2023-04-24T05:21:04;20.20;65.40
45060;DHT22;30799;49.060;9.312;2023-04-24T05:23:31;20.10;66.80
45060;DHT22;30799;49.060;9.312;2023-04-24T05:25:58;20.10;67.40
45060;DHT22;30799;49.060;9.312;2023-04-24T05:28:24;20.10;67.60
45060;DHT22;30799;49.060;9.312;2023-04-24T05:30:55;20.10;67.50
45060;DHT22;30799;49.060;9.312;2023-04-24T05:33:22;20.10;67.20
45060;DHT22;30799;49.060;9.312;2023-04-24T05:35:49;20.00;67.00
45060;DHT22;30799;49.060;9.312;2023-04-24T05:38:16;20.10;66.90
45060;DHT22;30799;49.060;9.312;2023-04-24T05:40:46;20.10;66.70
45060;DHT22;30799;49.060;9.312;2023-04-24T05:43:13;20.10;66.60
45060;DHT22;30799;49.060;9.312;2023-04-24T05:45:39;20.00;66.60
45060;DHT22;30799;49.060;9.312;2023-04-24T05:48:06;20.10;66.40
45060;DHT22;30799;49.060;9.312;2023-04-24T05:50:33;20.10;66.50
45060;DHT22;30799;49.060;9.312;2023-04-24T05:53:03;20.00;66.20
45060;DHT22;30799;49.060;9.312;2023-04-24T05:55:30;20.10;66.40
45060;DHT22;30799;49.060;9.312;2023-04-24T05:57:57;20.00;66.30
45060;DHT22;30799;49.060;9.312;2023-04-24T06:00:24;20.00;66.20
45060;DHT22;30799;49.060;9.312;2023-04-24T06:02:51;20.10;66.90
45060;DHT22;30799;49.060;9.312;2023-04-24T06:05:19;20.00;66.10
45060;DHT22;30799;49.060;9.312;2023-04-24T06:07:47;20.00;66.00
45060;DHT22;30799;49.060;9.312;2023-04-24T06:10:14;20.00;66.00
45060;DHT22;30799;49.060;9.312;2023-04-24T06:12:41;20.10;66.00
45060;DHT22;30799;49.060;9.312;2023-04-24T06:15:08;20.00;65.80
45060;DHT22;30799;49.060;9.312;2023-04-24T06:17:35;20.00;65.90
45060;DHT22;30799;49.060;9.312;2023-04-24T06:20:02;20.00;65.80
45060;DHT22;30799;49.060;9.312;2023-04-24T06:22:31;20.00;65.80
45060;DHT22;30799;49.060;9.312;2023-04-24T06:24:59;20.00;65.90
45060;DHT22;30799;49.060;9.312;2023-04-24T06:27:26;20.00;65.60
45060;DHT22;30799;49.060;9.312;2023-04-24T06:29:52;20.00;65.70
45060;DHT22;30799;49.060;9.312;2023-04-24T06:32:22;20.00;65.60
45060;DHT22;30799;49.060;9.312;2023-04-24T06:34:51;20.00;65.60
45060;DHT22;30799;49.060;9.312;2023-04-24T06:37:22;20.00;65.60
45060;DHT22;30799;49.060;9.312;2023-04-24T06:39:49;20.00;66.20
45060;DHT22;30799;49.060;9.312;2023-04-24T06:42:16;20.00;65.40
45060;DHT22;30799;49.060;9.312;2023-04-24T06:44:42;20.00;66.20
45060;DHT22;30799;49.060;9.312;2023-04-24T06:47:12;20.00;65.30
45060;DHT22;30799;49.060;9.312;2023-04-24T06:49:40;20.00;65.30
45060;DHT22;30799;49.060;9.312;2023-04-24T06:52:07;20.00;65.30
45060;DHT22;30799;49.060;9.312;2023-04-24T06:54:33;20.00;65.20
45060;DHT22;30799;49.060;9.312;2023-04-24T06:57:00;20.00;65.20
45060;DHT22;30799;49.060;9.312;2023-04-24T06:59:29;20.00;65.20
45060;DHT22;30799;49.060;9.312;2023-04-24T07:01:56;20.00;65.20
45060;DHT22;30799;49.060;9.312;2023-04-24T07:04:23;20.00;65.10
45060;DHT22;30799;49.060;9.312;2023-04-24T07:06:52;20.00;65.20
45060;DHT22;30799;49.060;9.312;2023-04-24T07:09:21;20.00;65.00
45060;DHT22;30799;49.060;9.312;2023-04-24T07:11:48;20.00;65.00
45060;DHT22;30799;49.060;9.312;2023-04-24T07:14:15;20.00;65.00
45060;DHT22;30799;49.060;9.312;2023-04-24T07:16:42;20.00;64.90
45060;DHT22;30799;49.060;9.312;2023-04-24T07:19:09;20.00;64.90
45060;DHT22;30799;49.060;9.312;2023-04-24T07:21:36;20.00;64.80
45060;DHT22;30799;49.060;9.312;2023-04-24T07:24:02;20.00;64.80
45060;DHT22;30799;49.060;9.312;2023-04-24T07:26:30;20.00;64.70
45060;DHT22;30799;49.060;9.312;2023-04-24T07:28:57;20.00;64.70
45060;DHT22;30799;49.060;9.312;2023-04-24T07:31:24;20.00;64.70
45060;DHT22;30799;49.060;9.312;2023-04-24T07:33:50;19.90;64.70
45060;DHT22;30799;49.060;9.312;2023-04-24T07:36:17;20.00;64.70
45060;DHT22;30799;49.060;9.312;2023-04-24T07:38:45;20.00;64.60
45060;DHT22;30799;49.060;9.312;2023-04-24T07:41:13;20.00;64.50
45060;DHT22;30799;49.060;9.312;2023-04-24T07:43:40;20.00;64.40
45060;DHT22;30799;49.060;9.312;2023-04-24T07:46:08;19.90;64.30
45060;DHT22;30799;49.060;9.312;2023-04-24T07:48:35;19.90;64.30
45060;DHT22;30799;49.060;9.312;2023-04-24T07:51:02;19.90;64.10
45060;DHT22;30799;49.060;9.312;2023-04-24T07:53:28;19.90;64.00
45060;DHT22;30799;49.060;9.312;2023-04-24T07:55:56;19.90;64.20
45060;DHT22;30799;49.060;9.312;2023-04-24T07:58:23;19.90;64.10
45060;DHT22;30799;49.060;9.312;2023-04-24T08:00:49;19.90;64.00
45060;DHT22;30799;49.060;9.312;2023-04-24T08:03:16;19.90;64.00
45060;DHT22;30799;49.060;9.312;2023-04-24T08:05:46;19.90;64.00
45060;DHT22;30799;49.060;9.312;2023-04-24T08:08:13;19.90;64.00
45060;DHT22;30799;49.060;9.312;2023-04-24T08:10:40;19.90;63.90
45060;DHT22;30799;49.060;9.312;2023-04-24T08:13:07;19.90;63.80
45060;DHT22;30799;49.060;9.312;2023-04-24T08:15:34;19.90;63.80
45060;DHT22;30799;49.060;9.312;2023-04-24T08:18:01;20.00;63.70
45060;DHT22;30799;49.060;9.312;2023-04-24T08:20:27;19.90;63.60
45060;DHT22;30799;49.060;9.312;2023-04-24T08:22:54;19.90;63.70
45060;DHT22;30799;49.060;9.312;2023-04-24T08:25:21;19.90;63.50
45060;DHT22;30799;49.060;9.312;2023-04-24T08:27:49;19.90;63.60
45060;DHT22;30799;49.060;9.312;2023-04-24T08:30:17;19.90;63.40
45060;DHT22;30799;49.060;9.312;2023-04-24T08:32:43;19.90;63.50
45060;DHT22;30799;49.060;9.312;2023-04-24T08:35:10;19.90;63.40
45060;DHT22;30799;49.060;9.312;2023-04-24T08:37:37;19.90;63.30
45060;DHT22;30799;49.060;9.312;2023-04-24T08:40:09;19.90;63.40
45060;DHT22;30799;49.060;9.312;2023-04-24T08:42:38;19.90;63.30
45060;DHT22;30799;49.060;9.312;2023-04-24T08:45:06;19.90;63.30
45060;DHT22;30799;49.060;9.312;2023-04-24T08:47:33;19.90;63.10
45060;DHT22;30799;49.060;9.312;2023-04-24T08:50:00;19.90;63.10
45060;DHT22;30799;49.060;9.312;2023-04-24T08:52:29;19.90;63.20
45060;DHT22;30799;49.060;9.312;2023-04-24T08:54:56;19.90;63.10
45060;DHT22;30799;49.060;9.312;2023-04-24T08:57:25;19.90;63.10
45060;DHT22;30799;49.060;9.312;2023-04-24T08:59:53;19.90;63.00
45060;DHT22;30799;49.060;9.312;2023-04-24T09:02:21;19.90;63.00
45060;DHT22;30799;49.060;9.312;2023-04-24T09:04:48;19.90;62.90
45060;DHT22;30799;49.060;9.312;2023-04-24T09:07:16;19.90;62.80
45060;DHT22;30799;49.060;9.312;2023-04-24T09:09:44;19.90;63.00
45060;DHT22;30799;49.060;9.312;2023-04-24T09:12:11;19.90;62.90
45060;DHT22;30799;49.060;9.312;2023-04-24T09:14:39;19.90;62.80
45060;DHT22;30799;49.060;9.312;2023-04-24T09:17:09;19.90;62.70
45060;DHT22;30799;49.060;9.312;2023-04-24T09:19:36;19.90;62.70
45060;DHT22;30799;49.060;9.312;2023-04-24T09:22:07;19.90;62.70
45060;DHT22;30799;49.060;9.312;2023-04-24T09:24:34;19.90;62.60
45060;DHT22;30799;49.060;9.312;2023-04-24T09:27:01;19.90;62.70
45060;DHT22;30799;49.060;9.312;2023-04-24T09:29:28;19.90;62.60
45060;DHT22;30799;49.060;9.312;2023-04-24T09:31:55;19.90;62.40
45060;DHT22;30799;49.060;9.312;2023-04-24T09:34:24;19.90;62.50
45060;DHT22;30799;49.060;9.312;2023-04-24T09:36:51;19.90;62.20
45060;DHT22;30799;49.060;9.312;2023-04-24T09:39:18;19.90;62.20
45060;DHT22;30799;49.060;9.312;2023-04-24T09:41:55;19.90;62.20
45060;DHT22;30799;49.060;9.312;2023-04-24T09:44:27;19.90;62.10
45060;DHT22;30799;49.060;9.312;2023-04-24T09:46:56;19.90;62.10
45060;DHT22;30799;49.060;9.312;2023-04-24T09:49:25;19.90;62.10
45060;DHT22;30799;49.060;9.312;2023-04-24T09:52:01;19.80;61.90
45060;DHT22;30799;49.060;9.312;2023-04-24T09:54:29;19.90;61.80
45060;DHT22;30799;49.060;9.312;2023-04-24T09:56:56;19.80;61.80
45060;DHT22;30799;49.060;9.312;2023-04-24T09:59:23;19.90;61.70
45060;DHT22;30799;49.060;9.312;2023-04-24T10:01:49;19.80;61.70
45060;DHT22;30799;49.060;9.312;2023-04-24T10:04:21;19.80;61.70
45060;DHT22;30799;49.060;9.312;2023-04-24T10:06:52;19.90;61.80
45060;DHT22;30799;49.060;9.312;2023-04-24T10:09:21;19.80;61.60
45060;DHT22;30799;49.060;9.312;2023-04-24T10:11:52;19.80;61.70
45060;DHT22;30799;49.060;9.312;2023-04-24T10:14:22;19.80;61.70
45060;DHT22;30799;49.060;9.312;2023-04-24T10:16:50;19.80;61.60
45060;DHT22;30799;49.060;9.312;2023-04-24T10:19:17;19.80;61.60
45060;DHT22;30799;49.060;9.312;2023-04-24T10:21:47;19.90;61.70
45060;DHT22;30799;49.060;9.312;2023-04-24T10:24:15;19.80;61.70
45060;DHT22;30799;49.060;9.312;2023-04-24T10:26:44;19.80;61.60
45060;DHT22;30799;49.060;9.312;2023-04-24T10:29:12;19.80;61.70
45060;DHT22;30799;49.060;9.312;2023-04-24T10:31:39;19.80;61.60
45060;DHT22;30799;49.060;9.312;2023-04-24T10:34:08;19.80;61.70
45060;DHT22;30799;49.060;9.312;2023-04-24T10:36:38;19.80;61.60
45060;DHT22;30799;49.060;9.312;2023-04-24T10:39:11;19.80;61.50
45060;DHT22;30799;49.060;9.312;2023-04-24T10:41:38;19.80;61.60
45060;DHT22;30799;49.060;9.312;2023-04-24T10:44:11;19.80;61.60
45060;DHT22;30799;49.060;9.312;2023-04-24T10:46:39;19.80;61.40
45060;DHT22;30799;49.060;9.312;2023-04-24T10:49:08;19.80;61.40
45060;DHT22;30799;49.060;9.312;2023-04-24T10:51:49;19.80;61.20
45060;DHT22;30799;49.060;9.312;2023-04-24T10:54:34;19.80;61.30
45060;DHT22;30799;49.060;9.312;2023-04-24T10:57:33;19.80;61.30
45060;DHT22;30799;49.060;9.312;2023-04-24T11:00:19;19.80;61.30
45060;DHT22;30799;49.060;9.312;2023-04-24T11:02:47;19.80;61.30
45060;DHT22;30799;49.060;9.312;2023-04-24T11:05:21;19.80;61.20
45060;DHT22;30799;49.060;9.312;2023-04-24T11:10:44;19.80;61.10
45060;DHT22;30799;49.060;9.312;2023-04-24T11:13:14;19.80;61.20
45060;DHT22;30799;49.060;9.312;2023-04-24T11:15:42;19.80;61.30
45060;DHT22;30799;49.060;9.312;2023-04-24T11:18:15;19.80;61.20
45060;DHT22;30799;49.060;9.312;2023-04-24T11:20:43;19.80;61.20
45060;DHT22;30799;49.060;9.312;2023-04-24T11:23:12;19.80;61.10
45060;DHT22;30799;49.060;9.312;2023-04-24T11:25:39;19.80;61.10
45060;DHT22;30799;49.060;9.312;2023-04-24T11:28:07;19.80;61.10
45060;DHT22;30799;49.060;9.312;2023-04-24T11:30:34;19.80;61.00
45060;DHT22;30799;49.060;9.312;2023-04-24T11:33:03;19.80;61.10
45060;DHT22;30799;49.060;9.312;2023-04-24T11:35:34;19.80;61.00
45060;DHT22;30799;49.060;9.312;2023-04-24T11:38:03;19.80;61.00
45060;DHT22;30799;49.060;9.312;2023-04-24T11:40:34;19.80;61.10
45060;DHT22;30799;49.060;9.312;2023-04-24T11:43:03;19.80;61.00
45060;DHT22;30799;49.060;9.312;2023-04-24T11:45:33;19.80;61.10
45060;DHT22;30799;49.060;9.312;2023-04-24T11:48:00;19.80;61.10
45060;DHT22;30799;49.060;9.312;2023-04-24T11:50:27;19.80;61.10
45060;DHT22;30799;49.060;9.312;2023-04-24T11:52:55;19.80;60.90
45060;DHT22;30799;49.060;9.312;2023-04-24T11:55:25;19.80;60.60
45060;DHT22;30799;49.060;9.312;2023-04-24T11:57:54;19.80;60.80
45060;DHT22;30799;49.060;9.312;2023-04-24T12:00:27;19.80;60.80
45060;DHT22;30799;49.060;9.312;2023-04-24T12:03:07;19.80;60.80
45060;DHT22;30799;49.060;9.312;2023-04-24T12:05:34;19.80;60.80
45060;DHT22;30799;49.060;9.312;2023-04-24T12:08:01;19.80;60.80
45060;DHT22;30799;49.060;9.312;2023-04-24T12:10:31;19.80;60.80
45060;DHT22;30799;49.060;9.312;2023-04-24T12:12:59;19.80;60.80
45060;DHT22;30799;49.060;9.312;2023-04-24T12:15:26;19.80;60.70
45060;DHT22;30799;49.060;9.312;2023-04-24T12:17:54;19.80;60.50
45060;DHT22;30799;49.060;9.312;2023-04-24T12:20:31;19.80;60.50
45060;DHT22;30799;49.060;9.312;2023-04-24T12:23:00;19.80;60.50
45060;DHT22;30799;49.060;9.312;2023-04-24T12:25:34;19.80;60.60
45060;DHT22;30799;49.060;9.312;2023-04-24T12:30:34;19.80;60.70
45060;DHT22;30799;49.060;9.312;2023-04-24T12:33:01;19.80;60.60
45060;DHT22;30799;49.060;9.312;2023-04-24T12:35:31;19.80;60.70
45060;DHT22;30799;49.060;9.312;2023-04-24T12:38:06;19.80;60.80
45060;DHT22;30799;49.060;9.312;2023-04-24T12:40:33;19.80;60.60
45060;DHT22;30799;49.060;9.312;2023-04-24T12:42:59;19.80;60.60
45060;DHT22;30799;49.060;9.312;2023-04-24T12:45:26;19.80;60.50
45060;DHT22;30799;49.060;9.312;2023-04-24T12:47:54;19.80;60.50
45060;DHT22;30799;49.060;9.312;2023-04-24T12:50:21;19.80;60.50
45060;DHT22;30799;49.060;9.312;2023-04-24T12:52:47;19.80;60.40
45060;DHT22;30799;49.060;9.312;2023-04-24T12:55:14;19.80;60.50
45060;DHT22;30799;49.060;9.312;2023-04-24T12:57:41;19.70;60.30
45060;DHT22;30799;49.060;9.312;2023-04-24T13:00:08;19.70;60.30
45060;DHT22;30799;49.060;9.312;2023-04-24T13:02:35;19.70;60.40
45060;DHT22;30799;49.060;9.312;2023-04-24T13:05:03;19.70;61.20
45060;DHT22;30799;49.060;9.312;2023-04-24T13:07:30;19.70;60.40
45060;DHT22;30799;49.060;9.312;2023-04-24T13:09:56;19.70;60.30
45060;DHT22;30799;49.060;9.312;2023-04-24T13:12:24;19.80;60.40
45060;DHT22;30799;49.060;9.312;2023-04-24T13:14:52;19.80;60.30
45060;DHT22;30799;49.060;9.312;2023-04-24T13:17:19;19.80;60.30
45060;DHT22;30799;49.060;9.312;2023-04-24T13:19:46;19.80;60.40
45060;DHT22;30799;49.060;9.312;2023-04-24T13:22:13;19.80;60.30
45060;DHT22;30799;49.060;9.312;2023-04-24T13:24:40;19.80;60.20
45060;DHT22;30799;49.060;9.312;2023-04-24T13:27:08;19.90;60.10
45060;DHT22;30799;49.060;9.312;2023-04-24T13:29:36;19.80;60.00
45060;DHT22;30799;49.060;9.312;2023-04-24T13:32:02;19.80;60.10
45060;DHT22;30799;49.060;9.312;2023-04-24T13:34:29;19.80;60.10
45060;DHT22;30799;49.060;9.312;2023-04-24T13:36:57;19.80;60.10
45060;DHT22;30799;49.060;9.312;2023-04-24T13:39:25;19.80;60.20
45060;DHT22;30799;49.060;9.312;2023-04-24T13:41:53;19.80;60.10
45060;DHT22;30799;49.060;9.312;2023-04-24T13:44:21;19.80;60.10
45060;DHT22;30799;49.060;9.312;2023-04-24T13:46:52;19.80;60.10
45060;DHT22;30799;49.060;9.312;2023-04-24T13:49:21;19.80;60.80
45060;DHT22;30799;49.060;9.312;2023-04-24T13:51:48;19.80;60.10
45060;DHT22;30799;49.060;9.312;2023-04-24T13:54:14;19.80;60.00
45060;DHT22;30799;49.060;9.312;2023-04-24T13:56:41;19.80;60.10
45060;DHT22;30799;49.060;9.312;2023-04-24T13:59:08;19.80;60.00
45060;DHT22;30799;49.060;9.312;2023-04-24T14:01:35;19.80;60.00
45060;DHT22;30799;49.060;9.312;2023-04-24T14:04:02;19.80;59.90
45060;DHT22;30799;49.060;9.312;2023-04-24T14:06:29;19.80;60.00
45060;DHT22;30799;49.060;9.312;2023-04-24T14:08:56;19.80;59.90
45060;DHT22;30799;49.060;9.312;2023-04-24T14:11:22;19.80;59.90
45060;DHT22;30799;49.060;9.312;2023-04-24T14:13:49;19.80;59.90
45060;DHT22;30799;49.060;9.312;2023-04-24T14:16:16;19.80;59.70
45060;DHT22;30799;49.060;9.312;2023-04-24T14:18:43;19.80;59.70
45060;DHT22;30799;49.060;9.312;2023-04-24T14:21:10;19.80;59.50
45060;DHT22;30799;49.060;9.312;2023-04-24T14:23:36;19.80;59.60
45060;DHT22;30799;49.060;9.312;2023-04-24T14:26:03;19.80;59.60
45060;DHT22;30799;49.060;9.312;2023-04-24T14:28:30;19.80;59.60
45060;DHT22;30799;49.060;9.312;2023-04-24T14:30:56;19.80;59.50
45060;DHT22;30799;49.060;9.312;2023-04-24T14:33:23;19.90;59.60
45060;DHT22;30799;49.060;9.312;2023-04-24T14:35:50;19.80;59.60
45060;DHT22;30799;49.060;9.312;2023-04-24T14:38:17;19.80;59.60
45060;DHT22;30799;49.060;9.312;2023-04-24T14:40:43;19.90;59.70
45060;DHT22;30799;49.060;9.312;2023-04-24T14:43:30;19.90;59.50
45060;DHT22;30799;49.060;9.312;2023-04-24T14:45:56;19.90;59.50
45060;DHT22;30799;49.060;9.312;2023-04-24T14:48:23;19.90;59.40
45060;DHT22;30799;49.060;9.312;2023-04-24T14:50:50;20.00;59.30
45060;DHT22;30799;49.060;9.312;2023-04-24T14:53:17;20.00;59.20
45060;DHT22;30799;49.060;9.312;2023-04-24T14:55:44;20.00;59.20
45060;DHT22;30799;49.060;9.312;2023-04-24T14:58:11;20.00;59.30
45060;DHT22;30799;49.060;9.312;2023-04-24T15:00:38;20.00;59.30
45060;DHT22;30799;49.060;9.312;2023-04-24T15:03:04;19.90;59.40
45060;DHT22;30799;49.060;9.312;2023-04-24T15:05:31;20.00;59.40
45060;DHT22;30799;49.060;9.312;2023-04-24T15:07:59;19.90;59.50
45060;DHT22;30799;49.060;9.312;2023-04-24T15:10:25;20.00;59.60
45060;DHT22;30799;49.060;9.312;2023-04-24T15:12:52;19.90;59.50
45060;DHT22;30799;49.060;9.312;2023-04-24T15:15:19;19.90;59.60
45060;DHT22;30799;49.060;9.312;2023-04-24T15:17:46;19.90;59.50
45060;DHT22;30799;49.060;9.312;2023-04-24T15:20:12;19.90;59.60
45060;DHT22;30799;49.060;9.312;2023-04-24T15:22:39;19.90;59.60
45060;DHT22;30799;49.060;9.312;2023-04-24T15:25:06;19.90;59.60
45060;DHT22;30799;49.060;9.312;2023-04-24T15:27:41;19.90;59.40
45060;DHT22;30799;49.060;9.312;2023-04-24T15:30:08;19.90;59.40
45060;DHT22;30799;49.060;9.312;2023-04-24T15:32:36;19.90;60.00
45060;DHT22;30799;49.060;9.312;2023-04-24T15:35:03;19.90;59.40
45060;DHT22;30799;49.060;9.312;2023-04-24T15:37:35;19.90;59.50
45060;DHT22;30799;49.060;9.312;2023-04-24T15:40:02;20.00;59.50